sensor_id;sensor_type;location;lat;lon;timestamp;P1;durP1;ratioP1;P2;durP2;ratioP2
5137;SDS011;53959;53.626;11.410;2022-07-10T00:00:12;12.00;;;1.37;;
5137;SDS011;53959;53.626;11.410;2022-07-10T00:02:39;3.03;;;0.83;;
5137;SDS011;53959;53.626;11.410;2022-07-10T00:05:06;7.80;;;0.63;;
5137;SDS011;53959;53.626;11.410;2022-07-10T00:07:32;4.57;;;0.93;;
5137;SDS011;53959;53.626;11.410;2022-07-10T00:09:58;3.70;;;0.80;;
5137;SDS011;53959;53.626;11.410;2022-07-10T00:12:23;2.33;;;0.70;;
5137;SDS011;53959;53.626;11.410;2022-07-10T00:14:49;2.20;;;0.90;;
5137;SDS011;53959;53.626;11.410;2022-07-10T00:17:15;6.63;;;1.30;;
5137;SDS011;53959;53.626;11.410;2022-07-10T00:19:40;4.43;;;0.97;;
5137;SDS011;53959;53.626;11.410;2022-07-10T00:22:06;11.20;;;1.23;;
5137;SDS011;53959;53.626;11.410;2022-07-10T00:24:31;4.20;;;1.43;;
5137;SDS011;53959;53.626;11.410;2022-07-10T00:26:57;2.77;;;0.90;;
5137;SDS011;53959;53.626;11.410;2022-07-10T00:29:23;9.07;;;0.90;;
5137;SDS011;53959;53.626;11.410;2022-07-10T00:31:49;5.50;;;0.80;;
5137;SDS011;53959;53.626;11.410;2022-07-10T00:34:14;1.63;;;1.10;;
5137;SDS011;53959;53.626;11.410;2022-07-10T00:36:40;7.53;;;1.80;;
5137;SDS011;53959;53.626;11.410;2022-07-10T00:39:05;8.60;;;0.90;;
5137;SDS011;53959;53.626;11.410;2022-07-10T00:41:31;3.63;;;1.10;;
5137;SDS011;53959;53.626;11.410;2022-07-10T00:43:58;8.73;;;1.37;;
5137;SDS011;53959;53.626;11.410;2022-07-10T00:46:25;7.83;;;1.37;;
5137;SDS011;53959;53.626;11.410;2022-07-10T00:48:51;6.93;;;1.27;;
5137;SDS011;53959;53.626;11.410;2022-07-10T00:51:18;7.20;;;1.13;;
5137;SDS011;53959;53.626;11.410;2022-07-10T00:53:45;4.00;;;1.07;;
5137;SDS011;53959;53.626;11.410;2022-07-10T00:56:16;3.80;;;1.13;;
5137;SDS011;53959;53.626;11.410;2022-07-10T00:58:44;7.47;;;1.07;;
5137;SDS011;53959;53.626;11.410;2022-07-10T01:01:10;3.77;;;1.30;;
5137;SDS011;53959;53.626;11.410;2022-07-10T01:03:36;14.20;;;2.20;;
5137;SDS011;53959;53.626;11.410;2022-07-10T01:06:02;9.73;;;1.57;;
5137;SDS011;53959;53.626;11.410;2022-07-10T01:08:28;11.33;;;1.27;;
5137;SDS011;53959;53.626;11.410;2022-07-10T01:10:54;2.97;;;1.00;;
5137;SDS011;53959;53.626;11.410;2022-07-10T01:13:19;13.13;;;1.47;;
5137;SDS011;53959;53.626;11.410;2022-07-10T01:15:46;7.90;;;1.43;;
5137;SDS011;53959;53.626;11.410;2022-07-10T01:18:12;8.73;;;1.57;;
5137;SDS011;53959;53.626;11.410;2022-07-10T01:20:39;9.00;;;1.77;;
5137;SDS011;53959;53.626;11.410;2022-07-10T01:23:05;7.17;;;1.70;;
5137;SDS011;53959;53.626;11.410;2022-07-10T01:25:30;12.53;;;1.60;;
5137;SDS011;53959;53.626;11.410;2022-07-10T01:27:56;7.47;;;1.23;;
5137;SDS011;53959;53.626;11.410;2022-07-10T01:30:21;6.10;;;2.90;;
5137;SDS011;53959;53.626;11.410;2022-07-10T01:32:47;4.50;;;0.90;;
5137;SDS011;53959;53.626;11.410;2022-07-10T01:35:13;8.57;;;1.73;;
5137;SDS011;53959;53.626;11.410;2022-07-10T01:37:39;13.77;;;1.80;;
5137;SDS011;53959;53.626;11.410;2022-07-10T01:40:05;4.90;;;1.30;;
5137;SDS011;53959;53.626;11.410;2022-07-10T01:42:32;5.37;;;1.43;;
5137;SDS011;53959;53.626;11.410;2022-07-10T01:44:57;9.93;;;1.47;;
5137;SDS011;53959;53.626;11.410;2022-07-10T01:47:23;6.27;;;1.50;;
5137;SDS011;53959;53.626;11.410;2022-07-10T01:49:50;12.17;;;1.73;;
5137;SDS011;53959;53.626;11.410;2022-07-10T01:52:17;6.90;;;1.20;;
5137;SDS011;53959;53.626;11.410;2022-07-10T01:54:43;6.00;;;1.63;;
5137;SDS011;53959;53.626;11.410;2022-07-10T01:57:09;7.93;;;1.30;;
5137;SDS011;53959;53.626;11.410;2022-07-10T01:59:34;5.03;;;1.63;;
5137;SDS011;53959;53.626;11.410;2022-07-10T02:02:00;8.40;;;1.30;;
5137;SDS011;53959;53.626;11.410;2022-07-10T02:04:25;3.47;;;1.80;;
5137;SDS011;53959;53.626;11.410;2022-07-10T02:07:10;6.43;;;1.67;;
5137;SDS011;53959;53.626;11.410;2022-07-10T02:09:38;10.07;;;1.83;;
5137;SDS011;53959;53.626;11.410;2022-07-10T02:12:05;14.47;;;2.23;;
5137;SDS011;53959;53.626;11.410;2022-07-10T02:14:31;6.53;;;1.37;;
5137;SDS011;53959;53.626;11.410;2022-07-10T02:16:57;8.77;;;1.77;;
5137;SDS011;53959;53.626;11.410;2022-07-10T02:19:23;7.97;;;1.90;;
5137;SDS011;53959;53.626;11.410;2022-07-10T02:21:48;8.77;;;2.33;;
5137;SDS011;53959;53.626;11.410;2022-07-10T02:24:14;15.77;;;2.83;;
5137;SDS011;53959;53.626;11.410;2022-07-10T02:26:39;18.23;;;2.33;;
5137;SDS011;53959;53.626;11.410;2022-07-10T02:29:05;4.90;;;1.40;;
5137;SDS011;53959;53.626;11.410;2022-07-10T02:31:30;13.97;;;2.00;;
5137;SDS011;53959;53.626;11.410;2022-07-10T02:33:59;12.13;;;2.47;;
5137;SDS011;53959;53.626;11.410;2022-07-10T02:36:25;10.60;;;2.17;;
5137;SDS011;53959;53.626;11.410;2022-07-10T02:38:50;4.50;;;1.83;;
5137;SDS011;53959;53.626;11.410;2022-07-10T02:41:16;13.47;;;1.80;;
5137;SDS011;53959;53.626;11.410;2022-07-10T02:43:41;9.80;;;1.60;;
5137;SDS011;53959;53.626;11.410;2022-07-10T02:46:07;13.53;;;2.60;;
5137;SDS011;53959;53.626;11.410;2022-07-10T02:48:32;8.50;;;1.90;;
5137;SDS011;53959;53.626;11.410;2022-07-10T02:50:58;6.23;;;1.40;;
5137;SDS011;53959;53.626;11.410;2022-07-10T02:53:23;8.60;;;1.90;;
5137;SDS011;53959;53.626;11.410;2022-07-10T02:55:49;9.73;;;1.90;;
5137;SDS011;53959;53.626;11.410;2022-07-10T02:58:14;7.27;;;1.77;;
5137;SDS011;53959;53.626;11.410;2022-07-10T03:00:40;18.80;;;3.23;;
5137;SDS011;53959;53.626;11.410;2022-07-10T03:03:06;7.10;;;1.80;;
5137;SDS011;53959;53.626;11.410;2022-07-10T03:05:32;8.60;;;1.80;;
5137;SDS011;53959;53.626;11.410;2022-07-10T03:07:58;14.23;;;1.60;;
5137;SDS011;53959;53.626;11.410;2022-07-10T03:10:24;5.80;;;1.97;;
5137;SDS011;53959;53.626;11.410;2022-07-10T03:12:49;12.50;;;2.17;;
5137;SDS011;53959;53.626;11.410;2022-07-10T03:15:15;9.83;;;1.80;;
5137;SDS011;53959;53.626;11.410;2022-07-10T03:17:40;10.80;;;2.27;;
5137;SDS011;53959;53.626;11.410;2022-07-10T03:20:06;11.37;;;2.10;;
5137;SDS011;53959;53.626;11.410;2022-07-10T03:22:33;8.40;;;1.93;;
5137;SDS011;53959;53.626;11.410;2022-07-10T03:24:59;8.17;;;1.87;;
5137;SDS011;53959;53.626;11.410;2022-07-10T03:27:25;7.20;;;1.53;;
5137;SDS011;53959;53.626;11.410;2022-07-10T03:29:50;7.30;;;1.90;;
5137;SDS011;53959;53.626;11.410;2022-07-10T03:32:16;19.00;;;2.67;;
5137;SDS011;53959;53.626;11.410;2022-07-10T03:34:41;7.53;;;2.07;;
5137;SDS011;53959;53.626;11.410;2022-07-10T03:37:07;8.30;;;1.90;;
5137;SDS011;53959;53.626;11.410;2022-07-10T03:39:33;10.27;;;1.70;;
5137;SDS011;53959;53.626;11.410;2022-07-10T03:41:58;15.50;;;1.83;;
5137;SDS011;53959;53.626;11.410;2022-07-10T03:44:24;12.03;;;2.07;;
5137;SDS011;53959;53.626;11.410;2022-07-10T03:46:50;10.40;;;1.60;;
5137;SDS011;53959;53.626;11.410;2022-07-10T03:49:15;28.83;;;2.30;;
5137;SDS011;53959;53.626;11.410;2022-07-10T03:51:41;10.70;;;2.57;;
5137;SDS011;53959;53.626;11.410;2022-07-10T03:54:06;8.40;;;1.77;;
5137;SDS011;53959;53.626;11.410;2022-07-10T03:56:32;11.40;;;2.40;;
5137;SDS011;53959;53.626;11.410;2022-07-10T03:59:16;12.00;;;1.90;;
5137;SDS011;53959;53.626;11.410;2022-07-10T04:01:42;13.23;;;2.80;;
5137;SDS011;53959;53.626;11.410;2022-07-10T04:04:07;12.03;;;1.90;;
5137;SDS011;53959;53.626;11.410;2022-07-10T04:06:33;27.67;;;3.30;;
5137;SDS011;53959;53.626;11.410;2022-07-10T04:08:58;19.23;;;2.27;;
5137;SDS011;53959;53.626;11.410;2022-07-10T04:11:24;18.40;;;3.10;;
5137;SDS011;53959;53.626;11.410;2022-07-10T04:13:49;10.97;;;2.03;;
5137;SDS011;53959;53.626;11.410;2022-07-10T04:16:15;6.73;;;2.70;;
5137;SDS011;53959;53.626;11.410;2022-07-10T04:18:40;13.57;;;2.73;;
5137;SDS011;53959;53.626;11.410;2022-07-10T04:21:06;18.27;;;2.63;;
5137;SDS011;53959;53.626;11.410;2022-07-10T04:23:32;11.07;;;2.40;;
5137;SDS011;53959;53.626;11.410;2022-07-10T04:25:58;16.03;;;2.40;;
5137;SDS011;53959;53.626;11.410;2022-07-10T04:28:24;12.23;;;1.90;;
5137;SDS011;53959;53.626;11.410;2022-07-10T04:30:49;21.63;;;3.17;;
5137;SDS011;53959;53.626;11.410;2022-07-10T04:33:15;11.20;;;1.87;;
5137;SDS011;53959;53.626;11.410;2022-07-10T04:35:41;14.10;;;2.30;;
5137;SDS011;53959;53.626;11.410;2022-07-10T04:38:06;16.30;;;2.93;;
5137;SDS011;53959;53.626;11.410;2022-07-10T04:40:32;13.60;;;2.20;;
5137;SDS011;53959;53.626;11.410;2022-07-10T04:42:57;15.40;;;2.87;;
5137;SDS011;53959;53.626;11.410;2022-07-10T04:45:23;22.70;;;3.20;;
5137;SDS011;53959;53.626;11.410;2022-07-10T04:47:48;12.03;;;2.60;;
5137;SDS011;53959;53.626;11.410;2022-07-10T04:50:14;19.70;;;4.10;;
5137;SDS011;53959;53.626;11.410;2022-07-10T04:52:39;12.13;;;2.90;;
5137;SDS011;53959;53.626;11.410;2022-07-10T04:55:05;14.17;;;2.30;;
5137;SDS011;53959;53.626;11.410;2022-07-10T04:57:31;15.00;;;2.63;;
5137;SDS011;53959;53.626;11.410;2022-07-10T04:59:56;9.90;;;2.60;;
5137;SDS011;53959;53.626;11.410;2022-07-10T05:02:22;9.03;;;2.37;;
5137;SDS011;53959;53.626;11.410;2022-07-10T05:04:48;17.53;;;2.70;;
5137;SDS011;53959;53.626;11.410;2022-07-10T05:07:13;14.27;;;2.80;;
5137;SDS011;53959;53.626;11.410;2022-07-10T05:09:39;5.73;;;2.07;;
5137;SDS011;53959;53.626;11.410;2022-07-10T05:12:05;17.13;;;2.30;;
5137;SDS011;53959;53.626;11.410;2022-07-10T05:14:31;15.83;;;2.97;;
5137;SDS011;53959;53.626;11.410;2022-07-10T05:16:57;11.90;;;2.30;;
5137;SDS011;53959;53.626;11.410;2022-07-10T05:19:23;8.43;;;2.40;;
5137;SDS011;53959;53.626;11.410;2022-07-10T05:21:48;10.90;;;2.23;;
5137;SDS011;53959;53.626;11.410;2022-07-10T05:24:14;5.97;;;2.17;;
5137;SDS011;53959;53.626;11.410;2022-07-10T05:26:39;15.97;;;2.00;;
5137;SDS011;53959;53.626;11.410;2022-07-10T05:29:05;17.00;;;2.40;;
5137;SDS011;53959;53.626;11.410;2022-07-10T05:31:30;18.87;;;2.77;;
5137;SDS011;53959;53.626;11.410;2022-07-10T05:33:56;12.10;;;2.70;;
5137;SDS011;53959;53.626;11.410;2022-07-10T05:36:22;21.10;;;3.67;;
5137;SDS011;53959;53.626;11.410;2022-07-10T05:38:47;16.17;;;4.30;;
5137;SDS011;53959;53.626;11.410;2022-07-10T05:41:13;8.40;;;3.17;;
5137;SDS011;53959;53.626;11.410;2022-07-10T05:43:38;16.40;;;3.40;;
5137;SDS011;53959;53.626;11.410;2022-07-10T05:46:04;16.60;;;2.30;;
5137;SDS011;53959;53.626;11.410;2022-07-10T05:48:30;15.20;;;2.30;;
5137;SDS011;53959;53.626;11.410;2022-07-10T05:50:56;11.67;;;2.20;;
5137;SDS011;53959;53.626;11.410;2022-07-10T05:53:22;18.77;;;2.37;;
5137;SDS011;53959;53.626;11.410;2022-07-10T05:55:47;14.50;;;2.27;;
5137;SDS011;53959;53.626;11.410;2022-07-10T05:58:13;8.30;;;2.20;;
5137;SDS011;53959;53.626;11.410;2022-07-10T06:00:39;18.03;;;2.23;;
5137;SDS011;53959;53.626;11.410;2022-07-10T06:03:04;8.87;;;2.20;;
5137;SDS011;53959;53.626;11.410;2022-07-10T06:05:30;22.00;;;2.63;;
5137;SDS011;53959;53.626;11.410;2022-07-10T06:07:56;17.57;;;1.90;;
5137;SDS011;53959;53.626;11.410;2022-07-10T06:10:21;13.20;;;2.57;;
5137;SDS011;53959;53.626;11.410;2022-07-10T06:12:47;21.50;;;3.30;;
5137;SDS011;53959;53.626;11.410;2022-07-10T06:15:12;13.33;;;1.90;;
5137;SDS011;53959;53.626;11.410;2022-07-10T06:17:38;8.13;;;2.47;;
5137;SDS011;53959;53.626;11.410;2022-07-10T06:20:04;10.00;;;2.33;;
5137;SDS011;53959;53.626;11.410;2022-07-10T06:22:30;14.83;;;2.70;;
5137;SDS011;53959;53.626;11.410;2022-07-10T06:24:55;10.77;;;2.00;;
5137;SDS011;53959;53.626;11.410;2022-07-10T06:27:22;13.23;;;2.37;;
5137;SDS011;53959;53.626;11.410;2022-07-10T06:29:47;18.73;;;2.20;;
5137;SDS011;53959;53.626;11.410;2022-07-10T06:32:13;8.73;;;2.50;;
5137;SDS011;53959;53.626;11.410;2022-07-10T06:34:38;20.37;;;3.27;;
5137;SDS011;53959;53.626;11.410;2022-07-10T06:37:04;7.80;;;1.80;;
5137;SDS011;53959;53.626;11.410;2022-07-10T06:39:32;5.40;;;1.93;;
5137;SDS011;53959;53.626;11.410;2022-07-10T06:42:03;11.77;;;2.50;;
5137;SDS011;53959;53.626;11.410;2022-07-10T06:44:30;5.40;;;2.23;;
5137;SDS011;53959;53.626;11.410;2022-07-10T06:46:56;12.17;;;1.90;;
5137;SDS011;53959;53.626;11.410;2022-07-10T06:49:41;8.50;;;2.07;;
5137;SDS011;53959;53.626;11.410;2022-07-10T06:52:07;10.03;;;1.90;;
5137;SDS011;53959;53.626;11.410;2022-07-10T06:54:33;10.77;;;1.80;;
5137;SDS011;53959;53.626;11.410;2022-07-10T06:56:59;7.97;;;1.93;;
5137;SDS011;53959;53.626;11.410;2022-07-10T06:59:25;12.40;;;2.17;;
5137;SDS011;53959;53.626;11.410;2022-07-10T07:01:50;15.63;;;2.37;;
5137;SDS011;53959;53.626;11.410;2022-07-10T07:04:16;8.90;;;1.87;;
5137;SDS011;53959;53.626;11.410;2022-07-10T07:06:42;14.83;;;1.67;;
5137;SDS011;53959;53.626;11.410;2022-07-10T07:09:07;4.97;;;1.47;;
5137;SDS011;53959;53.626;11.410;2022-07-10T07:11:33;13.83;;;2.10;;
5137;SDS011;53959;53.626;11.410;2022-07-10T07:13:58;13.10;;;1.80;;
5137;SDS011;53959;53.626;11.410;2022-07-10T07:16:24;9.50;;;1.30;;
5137;SDS011;53959;53.626;11.410;2022-07-10T07:19:03;5.70;;;1.67;;
5137;SDS011;53959;53.626;11.410;2022-07-10T07:21:30;5.60;;;1.80;;
5137;SDS011;53959;53.626;11.410;2022-07-10T07:24:14;5.30;;;1.57;;
5137;SDS011;53959;53.626;11.410;2022-07-10T07:26:39;15.30;;;1.83;;
5137;SDS011;53959;53.626;11.410;2022-07-10T07:29:05;12.37;;;2.40;;
5137;SDS011;53959;53.626;11.410;2022-07-10T07:31:31;8.57;;;1.60;;
5137;SDS011;53959;53.626;11.410;2022-07-10T07:33:57;13.30;;;2.33;;
5137;SDS011;53959;53.626;11.410;2022-07-10T07:36:22;4.97;;;1.83;;
5137;SDS011;53959;53.626;11.410;2022-07-10T07:38:48;7.67;;;1.60;;
5137;SDS011;53959;53.626;11.410;2022-07-10T07:41:13;18.50;;;1.97;;
5137;SDS011;53959;53.626;11.410;2022-07-10T07:43:40;9.73;;;1.57;;
5137;SDS011;53959;53.626;11.410;2022-07-10T07:46:06;7.77;;;1.50;;
5137;SDS011;53959;53.626;11.410;2022-07-10T07:48:31;8.47;;;1.40;;
5137;SDS011;53959;53.626;11.410;2022-07-10T07:50:57;9.93;;;1.73;;
5137;SDS011;53959;53.626;11.410;2022-07-10T07:53:23;12.00;;;2.33;;
5137;SDS011;53959;53.626;11.410;2022-07-10T07:55:48;13.30;;;2.70;;
5137;SDS011;53959;53.626;11.410;2022-07-10T07:58:14;9.93;;;1.90;;
5137;SDS011;53959;53.626;11.410;2022-07-10T08:00:39;5.87;;;1.00;;
5137;SDS011;53959;53.626;11.410;2022-07-10T08:03:05;9.27;;;2.70;;
5137;SDS011;53959;53.626;11.410;2022-07-10T08:05:30;7.53;;;1.27;;
5137;SDS011;53959;53.626;11.410;2022-07-10T08:07:57;7.33;;;1.20;;
5137;SDS011;53959;53.626;11.410;2022-07-10T08:10:29;7.50;;;1.57;;
5137;SDS011;53959;53.626;11.410;2022-07-10T08:12:55;6.77;;;1.40;;
5137;SDS011;53959;53.626;11.410;2022-07-10T08:15:21;6.90;;;1.43;;
5137;SDS011;53959;53.626;11.410;2022-07-10T08:17:48;5.90;;;1.73;;
5137;SDS011;53959;53.626;11.410;2022-07-10T08:20:14;4.67;;;1.23;;
5137;SDS011;53959;53.626;11.410;2022-07-10T08:22:41;5.27;;;1.20;;
5137;SDS011;53959;53.626;11.410;2022-07-10T08:25:08;12.40;;;1.80;;
5137;SDS011;53959;53.626;11.410;2022-07-10T08:27:34;5.47;;;1.53;;
5137;SDS011;53959;53.626;11.410;2022-07-10T08:30:00;9.13;;;1.67;;
5137;SDS011;53959;53.626;11.410;2022-07-10T08:32:25;12.70;;;1.30;;
5137;SDS011;53959;53.626;11.410;2022-07-10T08:34:52;3.37;;;1.20;;
5137;SDS011;53959;53.626;11.410;2022-07-10T08:37:18;4.03;;;0.90;;
5137;SDS011;53959;53.626;11.410;2022-07-10T08:39:44;12.57;;;1.50;;
5137;SDS011;53959;53.626;11.410;2022-07-10T08:42:11;10.17;;;1.40;;
5137;SDS011;53959;53.626;11.410;2022-07-10T08:44:37;8.57;;;1.20;;
5137;SDS011;53959;53.626;11.410;2022-07-10T08:47:03;3.00;;;1.10;;
5137;SDS011;53959;53.626;11.410;2022-07-10T08:49:30;2.80;;;1.00;;
5137;SDS011;53959;53.626;11.410;2022-07-10T08:52:03;4.67;;;1.37;;
5137;SDS011;53959;53.626;11.410;2022-07-10T08:54:30;3.10;;;0.90;;
5137;SDS011;53959;53.626;11.410;2022-07-10T08:56:57;3.37;;;1.30;;
5137;SDS011;53959;53.626;11.410;2022-07-10T08:59:27;2.23;;;1.17;;
5137;SDS011;53959;53.626;11.410;2022-07-10T09:01:54;7.93;;;1.70;;
5137;SDS011;53959;53.626;11.410;2022-07-10T09:04:21;8.30;;;1.20;;
5137;SDS011;53959;53.626;11.410;2022-07-10T09:06:48;6.57;;;1.20;;
5137;SDS011;53959;53.626;11.410;2022-07-10T09:09:15;4.70;;;1.03;;
5137;SDS011;53959;53.626;11.410;2022-07-10T09:11:41;5.80;;;1.63;;
5137;SDS011;53959;53.626;11.410;2022-07-10T09:14:08;3.40;;;1.33;;
5137;SDS011;53959;53.626;11.410;2022-07-10T09:16:37;9.20;;;1.80;;
5137;SDS011;53959;53.626;11.410;2022-07-10T09:19:24;3.90;;;1.60;;
5137;SDS011;53959;53.626;11.410;2022-07-10T09:21:51;6.43;;;1.27;;
5137;SDS011;53959;53.626;11.410;2022-07-10T09:24:21;11.37;;;1.77;;
5137;SDS011;53959;53.626;11.410;2022-07-10T09:29:21;8.67;;;1.60;;
5137;SDS011;53959;53.626;11.410;2022-07-10T09:31:50;8.13;;;1.80;;
5137;SDS011;53959;53.626;11.410;2022-07-10T09:34:39;5.33;;;1.43;;
5137;SDS011;53959;53.626;11.410;2022-07-10T09:37:18;5.10;;;1.07;;
5137;SDS011;53959;53.626;11.410;2022-07-10T09:42:26;6.83;;;1.90;;
5137;SDS011;53959;53.626;11.410;2022-07-10T09:47:37;6.00;;;1.33;;
5137;SDS011;53959;53.626;11.410;2022-07-10T09:50:03;12.67;;;1.53;;
5137;SDS011;53959;53.626;11.410;2022-07-10T09:52:43;5.17;;;1.30;;
5137;SDS011;53959;53.626;11.410;2022-07-10T09:55:10;5.67;;;1.70;;
5137;SDS011;53959;53.626;11.410;2022-07-10T09:57:36;9.30;;;1.70;;
5137;SDS011;53959;53.626;11.410;2022-07-10T10:00:02;14.23;;;1.17;;
5137;SDS011;53959;53.626;11.410;2022-07-10T10:02:28;8.03;;;1.20;;
5137;SDS011;53959;53.626;11.410;2022-07-10T10:04:54;2.17;;;0.90;;
5137;SDS011;53959;53.626;11.410;2022-07-10T10:07:20;10.23;;;0.90;;
5137;SDS011;53959;53.626;11.410;2022-07-10T10:09:48;3.47;;;1.33;;
5137;SDS011;53959;53.626;11.410;2022-07-10T10:12:25;4.43;;;1.20;;
5137;SDS011;53959;53.626;11.410;2022-07-10T10:15:07;6.73;;;1.33;;
5137;SDS011;53959;53.626;11.410;2022-07-10T10:17:36;9.10;;;2.00;;
5137;SDS011;53959;53.626;11.410;2022-07-10T10:20:03;11.67;;;2.40;;
5137;SDS011;53959;53.626;11.410;2022-07-10T10:22:48;4.23;;;1.30;;
5137;SDS011;53959;53.626;11.410;2022-07-10T10:25:15;6.13;;;1.00;;
5137;SDS011;53959;53.626;11.410;2022-07-10T10:27:44;5.50;;;1.13;;
5137;SDS011;53959;53.626;11.410;2022-07-10T10:30:10;6.13;;;1.87;;
5137;SDS011;53959;53.626;11.410;2022-07-10T10:32:39;29.53;;;1.90;;
5137;SDS011;53959;53.626;11.410;2022-07-10T10:35:05;6.00;;;1.37;;
5137;SDS011;53959;53.626;11.410;2022-07-10T10:37:37;6.67;;;1.47;;
5137;SDS011;53959;53.626;11.410;2022-07-10T10:40:09;11.40;;;1.77;;
5137;SDS011;53959;53.626;11.410;2022-07-10T10:42:40;3.70;;;1.27;;
5137;SDS011;53959;53.626;11.410;2022-07-10T10:50:50;9.13;;;1.67;;
5137;SDS011;53959;53.626;11.410;2022-07-10T10:53:18;6.10;;;1.20;;
5137;SDS011;53959;53.626;11.410;2022-07-10T10:58:25;7.13;;;1.57;;
5137;SDS011;53959;53.626;11.410;2022-07-10T11:00:51;8.53;;;1.27;;
5137;SDS011;53959;53.626;11.410;2022-07-10T11:03:18;4.57;;;1.63;;
5137;SDS011;53959;53.626;11.410;2022-07-10T11:05:46;6.00;;;1.60;;
5137;SDS011;53959;53.626;11.410;2022-07-10T11:08:14;5.37;;;1.13;;
5137;SDS011;53959;53.626;11.410;2022-07-10T11:10:59;4.67;;;1.40;;
5137;SDS011;53959;53.626;11.410;2022-07-10T11:13:25;5.67;;;1.57;;
5137;SDS011;53959;53.626;11.410;2022-07-10T11:15:54;3.93;;;1.10;;
5137;SDS011;53959;53.626;11.410;2022-07-10T11:18:22;10.40;;;1.70;;
5137;SDS011;53959;53.626;11.410;2022-07-10T11:20:49;3.73;;;1.30;;
5137;SDS011;53959;53.626;11.410;2022-07-10T11:26:04;6.10;;;2.23;;
5137;SDS011;53959;53.626;11.410;2022-07-10T11:31:23;4.77;;;1.73;;
5137;SDS011;53959;53.626;11.410;2022-07-10T11:33:51;5.93;;;1.00;;
5137;SDS011;53959;53.626;11.410;2022-07-10T11:36:19;7.97;;;1.40;;
5137;SDS011;53959;53.626;11.410;2022-07-10T11:38:55;8.53;;;1.40;;
5137;SDS011;53959;53.626;11.410;2022-07-10T11:41:25;3.90;;;1.43;;
5137;SDS011;53959;53.626;11.410;2022-07-10T11:43:54;7.00;;;1.43;;
5137;SDS011;53959;53.626;11.410;2022-07-10T11:46:25;3.40;;;1.40;;
5137;SDS011;53959;53.626;11.410;2022-07-10T11:48:52;4.70;;;1.17;;
5137;SDS011;53959;53.626;11.410;2022-07-10T11:53:53;8.57;;;1.60;;
5137;SDS011;53959;53.626;11.410;2022-07-10T11:56:26;9.73;;;2.13;;
5137;SDS011;53959;53.626;11.410;2022-07-10T11:58:54;9.60;;;1.80;;
5137;SDS011;53959;53.626;11.410;2022-07-10T12:01:31;20.23;;;1.80;;
5137;SDS011;53959;53.626;11.410;2022-07-10T12:04:04;3.37;;;1.00;;
5137;SDS011;53959;53.626;11.410;2022-07-10T12:06:31;7.47;;;2.00;;
5137;SDS011;53959;53.626;11.410;2022-07-10T12:09:08;6.33;;;1.43;;
5137;SDS011;53959;53.626;11.410;2022-07-10T12:11:57;3.27;;;1.30;;
5137;SDS011;53959;53.626;11.410;2022-07-10T12:14:27;5.70;;;1.50;;
5137;SDS011;53959;53.626;11.410;2022-07-10T12:16:54;13.00;;;1.40;;
5137;SDS011;53959;53.626;11.410;2022-07-10T12:21:55;5.00;;;0.97;;
5137;SDS011;53959;53.626;11.410;2022-07-10T12:24:22;3.90;;;1.00;;
5137;SDS011;53959;53.626;11.410;2022-07-10T12:26:49;6.07;;;1.50;;
5137;SDS011;53959;53.626;11.410;2022-07-10T12:29:20;5.00;;;1.23;;
5137;SDS011;53959;53.626;11.410;2022-07-10T12:31:47;6.10;;;1.47;;
5137;SDS011;53959;53.626;11.410;2022-07-10T12:34:14;9.33;;;1.20;;
5137;SDS011;53959;53.626;11.410;2022-07-10T12:36:44;6.03;;;1.63;;
5137;SDS011;53959;53.626;11.410;2022-07-10T12:39:18;8.63;;;1.77;;
5137;SDS011;53959;53.626;11.410;2022-07-10T12:41:53;6.30;;;1.70;;
5137;SDS011;53959;53.626;11.410;2022-07-10T12:44:36;8.00;;;2.33;;
5137;SDS011;53959;53.626;11.410;2022-07-10T12:47:13;14.93;;;1.50;;
5137;SDS011;53959;53.626;11.410;2022-07-10T12:52:19;6.17;;;1.73;;
5137;SDS011;53959;53.626;11.410;2022-07-10T12:54:46;2.67;;;1.30;;
5137;SDS011;53959;53.626;11.410;2022-07-10T12:57:12;7.93;;;1.60;;
5137;SDS011;53959;53.626;11.410;2022-07-10T12:59:38;5.57;;;1.90;;
5137;SDS011;53959;53.626;11.410;2022-07-10T13:02:19;4.67;;;1.30;;
5137;SDS011;53959;53.626;11.410;2022-07-10T13:04:53;5.97;;;1.50;;
5137;SDS011;53959;53.626;11.410;2022-07-10T13:07:19;6.67;;;1.63;;
5137;SDS011;53959;53.626;11.410;2022-07-10T13:09:53;9.17;;;1.60;;
5137;SDS011;53959;53.626;11.410;2022-07-10T13:12:18;5.73;;;1.50;;
5137;SDS011;53959;53.626;11.410;2022-07-10T13:14:44;10.73;;;1.53;;
5137;SDS011;53959;53.626;11.410;2022-07-10T13:17:10;4.10;;;1.47;;
5137;SDS011;53959;53.626;11.410;2022-07-10T13:19:35;15.93;;;1.77;;
5137;SDS011;53959;53.626;11.410;2022-07-10T13:22:01;10.20;;;1.37;;
5137;SDS011;53959;53.626;11.410;2022-07-10T13:24:26;6.83;;;1.83;;
5137;SDS011;53959;53.626;11.410;2022-07-10T13:26:53;4.53;;;1.43;;
5137;SDS011;53959;53.626;11.410;2022-07-10T13:29:21;6.57;;;1.47;;
5137;SDS011;53959;53.626;11.410;2022-07-10T13:31:46;9.33;;;1.57;;
5137;SDS011;53959;53.626;11.410;2022-07-10T13:34:12;9.10;;;1.63;;
5137;SDS011;53959;53.626;11.410;2022-07-10T13:36:37;4.90;;;1.10;;
5137;SDS011;53959;53.626;11.410;2022-07-10T13:39:03;4.40;;;1.73;;
5137;SDS011;53959;53.626;11.410;2022-07-10T13:41:29;4.23;;;1.30;;
5137;SDS011;53959;53.626;11.410;2022-07-10T13:43:54;11.13;;;2.13;;
5137;SDS011;53959;53.626;11.410;2022-07-10T13:46:20;15.90;;;2.27;;
5137;SDS011;53959;53.626;11.410;2022-07-10T13:48:46;2.60;;;0.90;;
5137;SDS011;53959;53.626;11.410;2022-07-10T13:51:11;14.60;;;1.40;;
5137;SDS011;53959;53.626;11.410;2022-07-10T13:53:37;9.40;;;1.23;;
5137;SDS011;53959;53.626;11.410;2022-07-10T13:56:06;5.67;;;1.33;;
5137;SDS011;53959;53.626;11.410;2022-07-10T13:58:32;5.13;;;1.50;;
5137;SDS011;53959;53.626;11.410;2022-07-10T14:00:59;4.70;;;1.30;;
5137;SDS011;53959;53.626;11.410;2022-07-10T14:03:25;10.90;;;1.83;;
5137;SDS011;53959;53.626;11.410;2022-07-10T14:05:52;9.77;;;1.40;;
5137;SDS011;53959;53.626;11.410;2022-07-10T14:08:17;6.83;;;1.30;;
5137;SDS011;53959;53.626;11.410;2022-07-10T14:10:43;8.50;;;1.50;;
5137;SDS011;53959;53.626;11.410;2022-07-10T14:13:09;9.30;;;1.63;;
5137;SDS011;53959;53.626;11.410;2022-07-10T14:15:35;4.37;;;1.20;;
5137;SDS011;53959;53.626;11.410;2022-07-10T14:18:01;5.43;;;1.60;;
5137;SDS011;53959;53.626;11.410;2022-07-10T14:20:27;3.77;;;1.67;;
5137;SDS011;53959;53.626;11.410;2022-07-10T14:22:53;8.03;;;1.37;;
5137;SDS011;53959;53.626;11.410;2022-07-10T14:25:20;7.83;;;1.40;;
5137;SDS011;53959;53.626;11.410;2022-07-10T14:27:48;5.33;;;1.20;;
5137;SDS011;53959;53.626;11.410;2022-07-10T14:30:14;13.33;;;1.20;;
5137;SDS011;53959;53.626;11.410;2022-07-10T14:32:39;1.70;;;1.10;;
5137;SDS011;53959;53.626;11.410;2022-07-10T14:35:05;6.00;;;1.00;;
5137;SDS011;53959;53.626;11.410;2022-07-10T14:37:31;5.67;;;0.90;;
5137;SDS011;53959;53.626;11.410;2022-07-10T14:39:57;3.03;;;1.07;;
5137;SDS011;53959;53.626;11.410;2022-07-10T14:42:22;2.40;;;0.70;;
5137;SDS011;53959;53.626;11.410;2022-07-10T14:44:48;4.70;;;1.20;;
5137;SDS011;53959;53.626;11.410;2022-07-10T14:47:13;4.13;;;1.30;;
5137;SDS011;53959;53.626;11.410;2022-07-10T14:49:39;9.80;;;1.27;;
5137;SDS011;53959;53.626;11.410;2022-07-10T14:52:05;6.70;;;1.27;;
5137;SDS011;53959;53.626;11.410;2022-07-10T14:54:31;4.80;;;1.10;;
5137;SDS011;53959;53.626;11.410;2022-07-10T14:56:56;11.53;;;1.20;;
5137;SDS011;53959;53.626;11.410;2022-07-10T14:59:22;4.73;;;1.23;;
5137;SDS011;53959;53.626;11.410;2022-07-10T15:01:48;2.87;;;1.10;;
5137;SDS011;53959;53.626;11.410;2022-07-10T15:04:13;9.20;;;1.63;;
5137;SDS011;53959;53.626;11.410;2022-07-10T15:06:39;1.43;;;0.80;;
5137;SDS011;53959;53.626;11.410;2022-07-10T15:09:04;4.60;;;1.40;;
5137;SDS011;53959;53.626;11.410;2022-07-10T15:11:30;4.77;;;0.90;;